Time;durP1;ratioP1;P1;durP2;ratioP2;P2;SDS_P1;SDS_P2;PMS_P1;PMS_P2;Temp;Humidity;BMP_temperature;BMP_pressure;BME280_temperature;BME280_humidity;BME280_pressure;Samples;Min_cycle;Max_cycle;Signal;HPM_P1;HPM_P2
2021/12/13 00:01:46;;;;;;;7.47;4.60;;;;;;;2.67;92.88;98920.22;4848279;29;20444;-89
2021/12/13 00:04:25;;;;;;;6.80;4.07;;;;;;;4.63;91.88;99230.13;4807932;29;20430;-89
2021/12/13 00:07:03;;;;;;;6.47;4.60;;;;;;;4.63;91.32;99253.56;4824691;29;20453;-88
2021/12/13 00:09:40;;;;;;;4.93;3.10;;;;;;;3.78;91.00;99114.41;4871463;29;20497;-87
2021/12/13 00:12:07;;;;;;;5.87;3.40;;;;;;;2.01;91.31;98820.09;4848274;29;20511;-88
2021/12/13 00:14:46;;;;;;;5.37;3.33;;;;;;;4.74;90.55;99286.84;4854842;29;20476;-90
2021/12/13 00:17:37;;;;;;;6.20;3.60;;;;;;;3.32;90.04;99052.09;4859181;29;20519;-87
2021/12/13 00:20:13;;;;;;;5.60;3.37;;;;;;;3.60;89.71;99103.16;4832147;29;20502;-89
2021/12/13 00:22:47;;;;;;;5.50;3.43;;;;;;;4.11;89.76;99188.31;4822555;29;20423;-86
2021/12/13 00:25:20;;;;;;;3.57;2.50;;;;;;;2.61;89.28;98950.69;4804059;29;20433;-88
2021/12/13 00:27:54;;;;;;;6.10;3.50;;;;;;;4.41;90.00;99212.84;4818843;29;20444;-88
2021/12/13 00:30:31;;;;;;;6.03;3.33;;;;;;;3.26;89.22;99036.69;4818813;29;20453;-89
2021/12/13 00:33:25;;;;;;;4.60;3.00;;;;;;;3.45;89.00;99053.00;4818956;29;20431;-89
2021/12/13 00:35:56;;;;;;;3.77;2.73;;;;;;;4.48;88.86;99254.19;4803272;29;20415;-89
2021/12/13 00:38:28;;;;;;;6.07;3.47;;;;;;;4.76;88.60;99295.31;4806587;29;20438;-88
2021/12/13 00:41:01;;;;;;;5.40;3.10;;;;;;;4.01;88.85;99186.84;4813421;29;20825;-89
2021/12/13 00:43:34;;;;;;;5.00;2.97;;;;;;;4.58;89.32;99297.53;4842993;29;20429;-88
2021/12/13 00:46:03;;;;;;;4.87;3.00;;;;;;;4.58;89.40;99301.66;4844270;29;20418;-88
2021/12/13 00:48:31;;;;;;;5.97;3.73;;;;;;;2.62;88.88;98951.53;4843966;29;20429;-88
2021/12/13 00:51:01;;;;;;;4.80;3.10;;;;;;;3.18;89.44;99070.31;4829028;29;20886;-88
2021/12/13 00:53:33;;;;;;;5.33;3.37;;;;;;;2.23;89.59;98888.16;4842202;29;20882;-88
2021/12/13 00:56:00;;;;;;;5.47;3.00;;;;;;;1.27;88.98;98746.78;4844802;29;20410;-87
2021/12/13 00:58:27;;;;;;;4.87;3.00;;;;;;;4.62;89.67;99296.06;4918623;29;20448;-88
2021/12/13 01:01:05;;;;;;;4.87;3.07;;;;;;;3.01;89.49;99045.81;4928182;29;20449;-87
2021/12/13 01:03:48;;;;;;;6.80;3.90;;;;;;;3.08;89.09;99042.97;4929633;29;20417;-87
2021/12/13 01:06:54;;;;;;;5.03;3.07;;;;;;;4.59;89.20;99290.84;4931009;29;20421;-88
2021/12/13 01:09:38;;;;;;;6.33;3.73;;;;;;;4.56;89.04;99281.50;4954289;28;20425;-88
2021/12/13 01:12:12;;;;;;;5.90;3.87;;;;;;;4.57;89.75;99294.91;4949326;28;20401;-89
2021/12/13 01:15:06;;;;;;;5.23;3.03;;;;;;;2.31;89.15;98921.13;4927298;29;20457;-88
2021/12/13 01:18:15;;;;;;;6.47;4.00;;;;;;;2.84;89.29;98993.06;4930743;29;20512;-89
2021/12/13 01:21:15;;;;;;;5.57;3.40;;;;;;;4.64;89.95;99282.84;4931667;29;20434;-84
2021/12/13 01:24:06;;;;;;;6.17;3.83;;;;;;;2.55;89.55;98960.28;4924501;29;20424;-88
2021/12/13 01:26:39;;;;;;;4.90;3.40;;;;;;;3.79;89.92;99193.72;4895990;29;20435;-87
2021/12/13 01:29:18;;;;;;;6.03;3.37;;;;;;;4.54;90.53;99304.72;4882610;29;20423;-89
2021/12/13 01:31:52;;;;;;;3.27;2.57;;;;;;;4.47;89.82;99325.16;4899116;29;20427;-86
2021/12/13 01:34:19;;;;;;;5.80;2.90;;;;;;;4.12;89.82;99238.50;4889804;29;20459;-88
2021/12/13 01:36:56;;;;;;;4.90;3.80;;;;;;;4.39;89.67;99288.72;4897284;29;20481;-86
2021/12/13 01:39:26;;;;;;;4.83;3.47;;;;;;;4.47;89.73;99287.56;4897925;29;20438;-91
2021/12/13 01:41:59;;;;;;;4.70;3.10;;;;;;;4.40;89.20;99282.91;4873414;29;21019;-87
2021/12/13 01:44:28;;;;;;;6.47;3.40;;;;;;;2.64;89.64;98993.34;4896515;29;20968;-89
2021/12/13 01:47:00;;;;;;;5.50;3.13;;;;;;;4.50;90.49;99286.13;4879929;29;20483;-86
2021/12/13 01:49:36;;;;;;;4.83;3.43;;;;;;;3.97;90.05;99224.13;4881266;29;20419;-88
2021/12/13 01:52:12;;;;;;;7.87;3.13;;;;;;;4.07;90.86;99224.81;4898086;29;20471;-90
2021/12/13 01:54:39;;;;;;;4.37;2.97;;;;;;;3.54;89.69;99135.31;4883858;29;20462;-88
2021/12/13 01:59:56;;;;;;;5.17;3.67;;;;;;;2.29;90.33;98956.00;4928180;29;20433;-88
2021/12/13 02:02:38;;;;;;;5.00;3.27;;;;;;;4.06;91.09;99232.25;4909843;29;20432;-88
2021/12/13 02:05:11;;;;;;;5.80;3.70;;;;;;;2.75;90.37;99029.94;4916059;29;20416;-88
2021/12/13 02:07:48;;;;;;;5.37;3.17;;;;;;;4.22;90.46;99267.56;4926371;29;20424;-88
2021/12/13 02:10:27;;;;;;;5.17;3.50;;;;;;;4.37;91.16;99280.22;4916631;29;20440;-88
2021/12/13 02:12:58;;;;;;;4.20;2.80;;;;;;;4.23;90.90;99276.78;4916749;29;20422;-88
2021/12/13 02:18:16;;;;;;;6.17;3.33;;;;;;;3.97;91.10;99219.97;4928048;29;20863;-88
2021/12/13 02:20:45;;;;;;;5.13;3.00;;;;;;;4.41;91.11;99277.13;4925430;29;20978;-89
2021/12/13 02:23:11;;;;;;;5.23;3.77;;;;;;;1.90;90.69;98875.91;4918978;29;20489;-89
2021/12/13 02:25:45;;;;;;;6.73;3.60;;;;;;;4.37;90.39;99275.22;4925924;29;20791;-88
2021/12/13 02:28:15;;;;;;;5.87;3.37;;;;;;;2.84;90.92;99022.19;4927618;29;20177;-88
2021/12/13 02:31:00;;;;;;;5.00;3.03;;;;;;;4.16;91.46;99272.16;4927160;29;20405;-89
2021/12/13 02:33:42;;;;;;;5.13;3.17;;;;;;;3.92;91.29;99215.44;4908711;29;20466;-88
2021/12/13 02:36:18;;;;;;;4.83;3.27;;;;;;;4.25;92.17;99296.94;4923574;29;20410;-88
2021/12/13 02:38:48;;;;;;;5.80;3.83;;;;;;;4.34;92.15;99292.56;4935399;29;20413;-86
2021/12/13 02:41:16;;;;;;;5.13;3.40;;;;;;;4.22;92.41;99285.09;4929666;29;20759;-89
2021/12/13 02:43:48;;;;;;;4.60;2.63;;;;;;;0.79;91.50;98714.38;4929144;29;20437;-88
2021/12/13 02:46:14;;;;;;;4.83;3.40;;;;;;;4.24;91.91;99290.19;4927629;29;20418;-88
2021/12/13 02:48:43;;;;;;;5.17;3.20;;;;;;;2.15;91.29;98926.72;4916971;29;20459;-89
2021/12/13 02:51:20;;;;;;;4.93;3.03;;;;;;;4.32;92.34;99309.09;4926561;29;20414;-88
2021/12/13 02:53:57;;;;;;;4.67;3.37;;;;;;;4.15;92.01;99288.81;4925398;29;20462;-86
2021/12/13 02:56:27;;;;;;;3.23;2.43;;;;;;;3.62;91.88;99178.34;4918109;29;20429;-88
2021/12/13 02:58:54;;;;;;;6.03;3.27;;;;;;;1.89;90.98;98890.78;4918604;29;20458;-88
2021/12/13 03:01:31;;;;;;;5.33;3.73;;;;;;;4.45;91.28;99304.16;4909148;29;20421;-89
2021/12/13 03:04:01;;;;;;;4.63;3.20;;;;;;;2.98;90.68;99078.97;4909874;29;20413;-90
2021/12/13 03:06:31;;;;;;;4.97;3.00;;;;;;;2.96;90.85;99050.53;4925161;29;20429;-89
2021/12/13 03:09:02;;;;;;;4.63;2.60;;;;;;;2.89;90.19;99066.72;4918357;29;20426;-88
2021/12/13 03:11:33;;;;;;;3.87;2.47;;;;;;;2.87;90.60;99055.75;4943201;29;20401;-88
2021/12/13 03:14:04;;;;;;;3.70;2.60;;;;;;;4.30;91.09;99298.13;4946679;29;20453;-88
2021/12/13 03:16:36;;;;;;;4.67;3.07;;;;;;;3.45;90.97;99139.69;4913552;29;20973;-89
2021/12/13 03:19:09;;;;;;;4.77;3.73;;;;;;;3.78;90.97;99199.50;4917455;29;20421;-88
2021/12/13 03:22:10;;;;;;;5.73;3.23;;;;;;;4.31;90.24;99293.22;4924692;29;20430;-87
2021/12/13 03:24:35;;;;;;;3.57;2.60;;;;;;;4.23;90.26;99281.78;4871244;29;20423;-87
2021/12/13 03:27:13;;;;;;;5.37;2.60;;;;;;;3.59;90.50;99191.53;4889825;29;20522;-88
2021/12/13 03:30:00;;;;;;;6.80;3.90;;;;;;;2.69;90.81;99022.00;4908974;29;20197;-89
2021/12/13 03:33:06;;;;;;;4.10;2.80;;;;;;;4.09;90.68;99243.31;4895547;29;20431;-89
2021/12/13 03:35:54;;;;;;;3.47;2.80;;;;;;;3.69;90.71;99188.88;4849391;29;20791;-88
2021/12/13 03:38:31;;;;;;;6.13;3.23;;;;;;;4.36;90.45;99303.53;4849861;29;21244;-88
2021/12/13 03:40:59;;;;;;;7.47;4.67;;;;;;;4.35;91.37;99290.13;4847897;29;20526;-88
2021/12/13 03:43:35;;;;;;;4.67;2.77;;;;;;;3.62;90.24;99184.22;4841873;29;20439;-89
2021/12/13 03:46:03;;;;;;;4.93;3.53;;;;;;;3.94;90.29;99197.25;4850317;29;20946;-90
2021/12/13 03:48:30;;;;;;;3.50;2.47;;;;;;;3.52;90.23;99152.72;4851773;29;20817;-88
2021/12/13 03:51:02;;;;;;;5.73;2.83;;;;;;;3.96;90.33;99235.75;4850825;29;20438;-87
2021/12/13 03:53:31;;;;;;;4.20;2.57;;;;;;;3.29;91.13;99130.31;4837415;29;20492;-88
2021/12/13 03:56:02;;;;;;;4.10;2.80;;;;;;;4.27;91.16;99277.88;4851663;29;20448;-87
2021/12/13 03:58:32;;;;;;;4.50;2.60;;;;;;;4.12;91.06;99262.72;4851920;29;20420;-88
2021/12/13 04:01:05;;;;;;;3.73;2.80;;;;;;;4.37;91.52;99311.13;4847104;29;20494;-88
2021/12/13 04:03:31;;;;;;;4.07;2.90;;;;;;;2.82;91.72;99064.59;4832185;29;20421;-87
2021/12/13 04:05:58;;;;;;;3.70;2.60;;;;;;;4.40;92.06;99325.50;4834035;29;20430;-87
2021/12/13 04:08:24;;;;;;;4.20;2.80;;;;;;;3.54;91.84;99190.38;4818364;29;20423;-87
2021/12/13 04:10:58;;;;;;;4.07;2.70;;;;;;;4.32;91.04;99347.56;4818753;29;20455;-88
2021/12/13 04:13:30;;;;;;;4.07;2.63;;;;;;;3.69;91.82;99238.94;4906671;29;20588;-90
2021/12/13 04:16:15;;;;;;;4.43;3.10;;;;;;;3.03;91.50;99094.28;4928377;29;20414;-89
2021/12/13 04:21:38;;;;;;;6.30;3.90;;;;;;;4.32;91.58;99337.53;4936102;29;20205;-90
2021/12/13 04:24:07;;;;;;;6.40;4.43;;;;;;;3.11;91.89;99119.03;4920311;29;20445;-88
2021/12/13 04:26:41;;;;;;;4.80;2.47;;;;;;;3.62;92.19;99259.31;4939355;29;20426;-88
2021/12/13 04:29:13;;;;;;;3.30;2.13;;;;;;;3.22;92.68;99178.16;4935731;29;20418;-88
2021/12/13 04:31:38;;;;;;;6.50;3.30;;;;;;;4.32;92.75;99342.53;4930160;29;20439;-87
2021/12/13 04:34:05;;;;;;;5.93;3.20;;;;;;;2.68;92.50;99051.91;4906757;29;20469;-88
2021/12/13 04:36:39;;;;;;;5.10;2.93;;;;;;;2.83;92.34;99061.31;4919212;29;20508;-89
2021/12/13 04:39:17;;;;;;;4.93;2.97;;;;;;;3.21;93.46;99161.44;4946029;29;20441;-85
2021/12/13 04:41:54;;;;;;;4.00;2.70;;;;;;;3.93;93.45;99287.25;4949460;29;20440;-88
2021/12/13 04:44:34;;;;;;;4.20;2.57;;;;;;;4.31;93.91;99329.94;4932912;29;20405;-88
2021/12/13 04:47:12;;;;;;;5.47;2.70;;;;;;;3.82;94.05;99258.16;4913309;29;20413;-89
2021/12/13 04:49:42;;;;;;;6.10;3.03;;;;;;;3.81;93.12;99244.78;4919546;29;20433;-89
2021/12/13 04:52:12;;;;;;;8.50;4.07;;;;;;;4.35;93.03;99345.25;4931177;29;20509;-88
2021/12/13 04:54:43;;;;;;;11.77;5.97;;;;;;;3.51;93.64;99245.19;4921869;29;20532;-88
2021/12/13 04:57:09;;;;;;;5.87;2.83;;;;;;;2.72;93.24;99071.34;4930514;29;20471;-88
2021/12/13 04:59:37;;;;;;;7.40;3.53;;;;;;;4.10;92.88;99324.34;4929903;29;20500;-88
2021/12/13 05:02:08;;;;;;;12.67;6.27;;;;;;;2.83;93.89;99121.28;4930217;29;20265;-88
2021/12/13 05:04:34;;;;;;;8.60;4.17;;;;;;;2.64;93.30;99078.31;4928882;29;20516;-88
2021/12/13 05:07:03;;;;;;;6.27;4.00;;;;;;;1.16;93.52;98829.16;4926295;29;20410;-88
2021/12/13 05:09:31;;;;;;;8.03;3.60;;;;;;;3.67;94.40;99258.00;4926092;29;20437;-89
2021/12/13 05:12:10;;;;;;;4.70;2.67;;;;;;;0.88;94.23;98829.59;4916767;29;20432;-89
2021/12/13 05:14:45;;;;;;;4.63;3.00;;;;;;;-0.19;94.08;98624.38;4928103;29;20552;-91
2021/12/13 05:17:19;;;;;;;5.97;3.33;;;;;;;4.11;94.97;99351.13;4918777;29;20982;-90
2021/12/13 05:19:50;;;;;;;5.23;3.07;;;;;;;-0.49;95.38;98577.41;4925598;29;20935;-87
2021/12/13 05:22:18;;;;;;;4.23;2.90;;;;;;;2.16;96.98;99054.94;4929214;29;20418;-88
2021/12/13 05:24:48;;;;;;;4.23;2.60;;;;;;;3.78;96.71;99332.19;4919640;29;20414;-90
2021/12/13 05:27:24;;;;;;;5.27;3.33;;;;;;;0.82;96.93;98824.19;4927321;29;20413;-88
2021/12/13 05:29:51;;;;;;;5.50;3.60;;;;;;;4.05;98.15;99366.63;4927511;29;20469;-88
2021/12/13 05:32:20;;;;;;;4.77;3.27;;;;;;;4.04;98.35;99366.50;4915516;29;20418;-88
2021/12/13 05:34:48;;;;;;;4.50;2.93;;;;;;;2.26;99.78;99123.09;4923890;29;20546;-87
2021/12/13 05:37:14;;;;;;;5.30;3.57;;;;;;;3.74;100.00;99362.75;4921391;29;20418;-87
2021/12/13 05:40:04;;;;;;;8.27;4.13;;;;;;;2.76;100.00;99221.63;4918275;29;20418;-88
2021/12/13 05:42:44;;;;;;;5.63;3.27;;;;;;;3.46;100.00;99402.50;4928803;29;20433;-88
2021/12/13 05:45:31;;;;;;;7.70;5.17;;;;;;;1.97;100.00;99171.69;4927746;29;20406;-88
2021/12/13 05:48:00;;;;;;;6.47;3.27;;;;;;;3.28;100.00;99358.69;4927948;29;20409;-88
2021/12/13 05:56:04;;;;;;;5.80;3.47;;;;;;;1.27;100.00;99123.19;4929662;29;20489;-88
2021/12/13 05:58:53;;;;;;;8.13;4.93;;;;;;;0.31;100.00;98931.63;4902416;29;20457;-88
2021/12/13 06:01:27;;;;;;;11.33;6.07;;;;;;;2.87;100.00;99378.22;4902587;29;20465;-88
2021/12/13 06:03:55;;;;;;;10.50;5.70;;;;;;;2.73;100.00;99368.84;4902449;29;20418;-90
2021/12/13 06:06:27;;;;;;;9.97;5.10;;;;;;;1.95;100.00;99248.94;4921635;29;20466;-88
2021/12/13 06:08:57;;;;;;;8.30;5.20;;;;;;;0.85;100.00;99061.06;4922382;29;20429;-88
2021/12/13 06:11:33;;;;;;;9.63;5.87;;;;;;;2.63;100.00;99361.44;4922948;29;20419;-88
2021/12/13 06:14:15;;;;;;;11.53;6.13;;;;;;;2.63;100.00;99360.56;4929601;29;20542;-89
2021/12/13 06:17:03;;;;;;;8.40;4.03;;;;;;;-0.33;100.00;98850.41;4933851;29;20430;-89
2021/12/13 06:19:42;;;;;;;14.90;5.73;;;;;;;0.28;100.00;98926.44;4914432;29;20430;-87
2021/12/13 06:22:11;;;;;;;20.53;6.07;;;;;;;2.73;100.00;99367.97;4920960;29;20873;-89
2021/12/13 06:24:42;;;;;;;11.13;5.33;;;;;;;2.67;100.00;99360.88;4920975;29;20425;-89
2021/12/13 06:27:33;;;;;;;12.77;6.90;;;;;;;1.02;100.00;99083.13;4920905;29;20422;-89
2021/12/13 06:30:17;;;;;;;10.23;5.20;;;;;;;-0.99;100.00;98782.31;4912327;29;20939;-90
2021/12/13 06:33:06;;;;;;;10.97;6.30;;;;;;;-0.97;100.00;98780.84;4908722;29;20413;-89
2021/12/13 06:35:53;;;;;;;15.30;7.80;;;;;;;2.68;100.00;99367.63;4912496;29;20485;-88
2021/12/13 06:38:31;;;;;;;10.73;5.10;;;;;;;1.44;100.00;99191.03;4932799;29;20390;-88
2021/12/13 06:40:59;;;;;;;6.97;3.90;;;;;;;1.35;100.00;99160.44;4927369;29;20423;-88
2021/12/13 06:43:50;;;;;;;10.83;5.93;;;;;;;1.61;100.00;99195.69;4907382;29;20517;-90
2021/12/13 06:46:25;;;;;;;11.70;6.67;;;;;;;2.60;100.00;99377.81;4851299;29;20450;-91
2021/12/13 06:49:05;;;;;;;13.63;7.30;;;;;;;2.77;100.00;99384.94;4854427;29;20409;-91
2021/12/13 06:51:49;;;;;;;11.83;5.77;;;;;;;2.82;100.00;99384.53;4854381;29;20437;-90
2021/12/13 06:54:20;;;;;;;22.57;10.13;;;;;;;2.49;100.00;99349.56;4855879;29;20474;-89
2021/12/13 06:56:59;;;;;;;20.17;9.50;;;;;;;0.81;100.00;99079.88;4842299;29;20422;-90
2021/12/13 06:59:28;;;;;;;20.80;9.50;;;;;;;-2.38;100.00;98500.94;4848254;29;20430;-89
2021/12/13 07:02:06;;;;;;;14.60;7.80;;;;;;;-1.37;100.00;98686.59;4849481;29;20493;-92
2021/12/13 07:04:53;;;;;;;16.30;8.60;;;;;;;0.35;100.00;98970.09;4835780;29;20437;-91
2021/12/13 07:07:23;;;;;;;12.70;6.60;;;;;;;1.20;100.00;99104.44;4856617;29;20426;-91
2021/12/13 07:10:02;;;;;;;11.90;5.77;;;;;;;2.80;100.00;99398.50;4832494;29;20478;-89
2021/12/13 07:12:31;;;;;;;11.93;6.07;;;;;;;1.34;100.00;99163.69;4834389;29;20430;-89
2021/12/13 07:14:58;;;;;;;14.10;6.93;;;;;;;1.44;100.00;99162.75;4846808;29;20509;-92
2021/12/13 07:17:41;;;;;;;46.40;21.20;;;;;;;1.44;100.00;99160.25;4854916;29;20426;-90
2021/12/13 07:20:15;;;;;;;8.53;5.33;;;;;;;2.80;100.00;99418.50;4853060;29;20448;-89
2021/12/13 07:22:42;;;;;;;30.53;15.33;;;;;;;2.31;100.00;99339.06;4859751;29;20434;-90
2021/12/13 07:25:12;;;;;;;10.40;5.87;;;;;;;2.78;100.00;99427.53;4929075;29;20451;-91
2021/12/13 07:27:45;;;;;;;33.17;18.33;;;;;;;0.57;100.00;99011.66;4916799;29;20430;-89
2021/12/13 07:30:30;;;;;;;16.00;9.30;;;;;;;2.51;100.00;99365.53;4929244;29;20407;-90
2021/12/13 07:33:03;;;;;;;14.63;8.13;;;;;;;-0.89;100.00;98793.84;4908558;29;20479;-90
2021/12/13 07:35:41;;;;;;;18.70;9.27;;;;;;;2.87;100.00;99435.72;4907450;29;20423;-88
2021/12/13 07:38:16;;;;;;;32.17;17.30;;;;;;;2.97;100.00;99447.25;4908057;29;20435;-90
2021/12/13 07:40:49;;;;;;;22.50;11.63;;;;;;;2.96;100.00;99443.03;4899276;29;20426;-90
2021/12/13 07:43:26;;;;;;;16.57;7.77;;;;;;;-0.86;100.00;98813.97;4906360;29;20415;-90
2021/12/13 07:46:09;;;;;;;14.20;7.47;;;;;;;2.76;100.00;99454.03;4921970;29;20520;-91
2021/12/13 07:48:51;;;;;;;13.90;7.60;;;;;;;0.78;100.00;99101.19;4900296;29;20478;-89
2021/12/13 07:51:30;;;;;;;13.80;7.43;;;;;;;2.77;100.00;99457.41;4906248;29;20458;-89
2021/12/13 07:53:59;;;;;;;40.93;19.80;;;;;;;2.73;100.00;99453.81;4907131;29;20714;-89
2021/12/13 07:56:37;;;;;;;19.13;10.63;;;;;;;2.77;100.00;99458.28;4914023;29;20449;-90
2021/12/13 07:59:14;;;;;;;25.73;14.93;;;;;;;2.87;100.00;99478.22;4954741;23;20434;-89
2021/12/13 08:01:51;;;;;;;49.77;25.33;;;;;;;2.97;100.00;99469.75;4931681;29;20445;-90
2021/12/13 08:04:40;;;;;;;31.63;16.07;;;;;;;2.27;100.00;99383.69;4923307;29;20429;-91
2021/12/13 08:07:11;;;;;;;28.53;14.07;;;;;;;-1.59;100.00;98717.97;4921421;29;20426;-91
2021/12/13 08:12:23;;;;;;;22.27;12.37;;;;;;;2.66;100.00;99476.63;5069243;23;20506;-90
2021/12/13 08:14:54;;;;;;;39.07;21.10;;;;;;;2.79;100.00;99464.28;4898280;29;20478;-90
2021/12/13 08:17:27;;;;;;;34.50;19.57;;;;;;;0.71;100.00;99117.31;4889016;29;20479;-92
2021/12/13 08:20:07;;;;;;;13.53;8.10;;;;;;;-0.39;100.00;98962.69;4887438;29;20813;-89
2021/12/13 08:22:34;;;;;;;31.53;21.00;;;;;;;-0.33;100.00;98958.16;4902971;29;20430;-90
2021/12/13 08:25:06;;;;;;;22.60;12.23;;;;;;;1.22;100.00;99217.59;4900704;29;20412;-91
2021/12/13 08:27:41;;;;;;;46.13;25.57;;;;;;;0.35;100.00;99063.06;4884643;29;20420;-91
2021/12/13 08:30:18;;;;;;;41.13;19.17;;;;;;;2.83;100.00;99483.72;4886137;29;20447;-92
2021/12/13 08:33:04;;;;;;;30.03;14.50;;;;;;;2.87;100.00;99487.34;4905125;29;20412;-91
2021/12/13 08:35:52;;;;;;;25.70;13.77;;;;;;;2.72;100.00;99492.03;4904772;29;20599;-90
2021/12/13 08:38:38;;;;;;;24.30;12.27;;;;;;;2.74;100.00;99533.03;4905620;29;20413;-91
2021/12/13 08:41:31;;;;;;;45.10;17.83;;;;;;;2.84;100.00;99482.09;4907454;29;20400;-91
2021/12/13 08:44:23;;;;;;;83.20;39.27;;;;;;;0.80;100.00;99144.53;4895059;29;20475;-94
2021/12/13 08:46:57;;;;;;;34.80;16.33;;;;;;;2.00;100.00;99376.59;4903281;29;21280;-88
2021/12/13 08:49:35;;;;;;;166.60;91.50;;;;;;;2.80;100.00;99523.47;4889742;29;20523;-90
2021/12/13 08:52:16;;;;;;;21.80;12.63;;;;;;;2.60;100.00;99483.66;4883970;29;20465;-91
2021/12/13 08:55:05;;;;;;;32.33;18.27;;;;;;;2.57;100.00;99480.91;4899349;29;20463;-89
2021/12/13 08:57:58;;;;;;;21.87;12.63;;;;;;;2.59;100.00;99473.50;4900874;29;20407;-92
2021/12/13 09:00:42;;;;;;;27.70;15.97;;;;;;;2.10;100.00;99394.00;4907691;29;20412;-91
2021/12/13 09:03:37;;;;;;;14.83;7.07;;;;;;;2.72;100.00;99487.03;4905193;29;21424;-90
2021/12/13 09:06:17;;;;;;;27.70;15.90;;;;;;;2.77;100.00;99484.91;4820234;29;20420;-91
2021/12/13 09:09:04;;;;;;;12.77;7.00;;;;;;;2.70;100.00;99507.69;4806253;29;20424;-91
2021/12/13 09:11:32;;;;;;;15.90;7.17;;;;;;;1.36;100.00;99274.38;4798987;29;20481;-89
2021/12/13 09:14:26;;;;;;;16.10;8.73;;;;;;;2.83;100.00;99487.88;4809739;29;20582;-91
2021/12/13 09:17:25;;;;;;;15.77;8.57;;;;;;;2.81;100.00;99485.25;5094231;23;20590;-91
2021/12/13 09:20:13;;;;;;;26.77;13.23;;;;;;;-1.83;100.00;98668.16;4929606;29;20474;-91
2021/12/13 09:22:44;;;;;;;14.60;7.57;;;;;;;-2.05;100.00;98658.88;4930954;29;20459;-89
2021/12/13 09:25:27;;;;;;;16.20;9.27;;;;;;;1.49;100.00;99274.56;4927032;29;20430;-90
2021/12/13 09:28:09;;;;;;;13.20;7.27;;;;;;;0.72;100.00;99166.34;4923355;29;20891;-91
2021/12/13 09:30:35;;;;;;;52.97;22.77;;;;;;;2.66;100.00;99468.25;4897168;29;20450;-91
2021/12/13 09:33:43;;;;;;;60.30;24.57;;;;;;;-1.47;100.00;98738.78;4894760;29;20438;-90
2021/12/13 09:36:39;;;;;;;19.57;9.77;;;;;;;2.58;100.00;99475.16;4876388;29;20207;-90
2021/12/13 09:39:21;;;;;;;23.50;11.00;;;;;;;0.79;100.00;99171.06;4824773;29;20446;-91
2021/12/13 09:41:52;;;;;;;28.50;14.90;;;;;;;0.49;100.00;99116.41;4826522;29;20415;-92
2021/12/13 09:44:31;;;;;;;24.77;11.20;;;;;;;-1.69;100.00;98765.09;4822816;29;20430;-91
2021/12/13 09:47:14;;;;;;;42.77;21.10;;;;;;;1.17;100.00;99222.25;4822472;29;20434;-90
2021/12/13 09:49:48;;;;;;;17.07;9.40;;;;;;;2.57;100.00;99470.03;4823857;29;20434;-91
2021/12/13 09:52:42;;;;;;;13.73;7.10;;;;;;;2.68;100.00;99505.09;4841147;29;20427;-90
2021/12/13 09:55:23;;;;;;;12.60;6.80;;;;;;;2.90;100.00;99480.06;4804381;29;20476;-93
2021/12/13 09:57:57;;;;;;;18.67;11.00;;;;;;;-0.50;100.00;98931.16;4800498;29;20459;-93
2021/12/13 10:00:57;;;;;;;14.23;7.00;;;;;;;0.14;100.00;99046.44;4802516;29;20443;-91
2021/12/13 10:03:28;;;;;;;17.33;9.27;;;;;;;-1.22;100.00;98807.84;4804651;29;20511;-92
2021/12/13 10:06:00;;;;;;;15.30;8.77;;;;;;;2.46;100.00;99404.28;4794737;29;20462;-91
2021/12/13 10:08:39;;;;;;;15.33;7.93;;;;;;;-1.24;100.00;98794.44;4839973;29;20434;-90
2021/12/13 10:11:13;;;;;;;14.40;6.70;;;;;;;0.87;100.00;99171.66;4826688;29;20426;-92
2021/12/13 10:13:40;;;;;;;13.83;6.57;;;;;;;-1.61;100.00;98757.53;4825052;29;21003;-90
2021/12/13 10:16:09;;;;;;;13.13;6.80;;;;;;;-2.04;100.00;98650.69;4835260;29;20426;-90
2021/12/13 10:18:39;;;;;;;23.23;10.73;;;;;;;-0.92;100.00;98835.84;4861887;29;20504;-94
2021/12/13 10:21:40;;;;;;;20.83;11.60;;;;;;;2.85;100.00;99479.72;4862308;29;20434;-91
2021/12/13 10:24:18;;;;;;;16.63;8.10;;;;;;;-1.85;100.00;98698.53;5258961;23;20495;-92
2021/12/13 10:26:55;;;;;;;15.27;9.27;;;;;;;2.61;100.00;99470.38;4942718;23;20427;31
2021/12/13 10:29:24;;;;;;;16.70;9.27;;;;;;;0.98;100.00;99175.84;4881872;29;20475;-91
2021/12/13 10:37:33;;;;;;;26.27;11.47;;;;;;;2.62;100.00;99492.13;5526650;23;20492;-92
2021/12/13 10:40:06;;;;;;;11.93;5.93;;;;;;;-2.41;100.00;98627.06;4938973;29;20426;-91
2021/12/13 10:42:40;;;;;;;20.27;11.27;;;;;;;-1.63;100.00;98760.63;4952788;29;20433;-91
2021/12/13 10:45:19;;;;;;;15.00;8.13;;;;;;;0.04;100.00;99038.16;4945773;29;20457;-89
2021/12/13 10:47:48;;;;;;;12.37;6.50;;;;;;;-0.12;100.00;99013.69;4939828;29;20413;-91
2021/12/13 10:50:19;;;;;;;16.93;8.33;;;;;;;2.49;100.00;99466.09;4955311;29;20406;-90
2021/12/13 10:52:51;;;;;;;16.07;8.73;;;;;;;2.42;100.00;99506.38;4938069;29;20815;-91
2021/12/13 10:55:28;;;;;;;23.10;12.17;;;;;;;-2.54;100.00;98624.34;4951136;29;20460;-90
2021/12/13 10:58:00;;;;;;;20.47;10.03;;;;;;;-1.71;100.00;98726.91;4957558;29;20395;-91
2021/12/13 11:00:31;;;;;;;28.67;14.67;;;;;;;1.02;100.00;99165.34;4958137;29;20428;-90
2021/12/13 11:05:41;;;;;;;16.23;8.57;;;;;;;2.53;100.00;99480.56;4881928;29;20479;-91
2021/12/13 11:08:15;;;;;;;13.80;6.47;;;;;;;-1.73;100.00;98719.31;4891540;29;20440;-91
2021/12/13 11:10:56;;;;;;;18.77;9.93;;;;;;;-1.73;100.00;98709.41;4894413;29;20428;-90
2021/12/13 11:13:32;;;;;;;12.57;6.57;;;;;;;-1.97;100.00;98682.66;5104149;23;20489;-91
2021/12/13 11:16:02;;;;;;;14.80;8.07;;;;;;;-1.53;100.00;98782.94;4939056;29;20444;-93
2021/12/13 11:18:57;;;;;;;33.60;15.03;;;;;;;2.59;100.00;99449.41;4989093;23;20494;-93
2021/12/13 11:22:03;;;;;;;43.00;20.60;;;;;;;1.38;100.00;99289.44;4947808;23;20435;-90
2021/12/13 11:24:45;;;;;;;36.83;17.13;;;;;;;2.61;100.00;99439.53;1847009;23;20683;31
2021/12/13 11:27:21;;;;;;;40.73;17.17;;;;;;;-0.03;100.00;99046.78;4877724;29;20539;-91
2021/12/13 11:29:48;;;;;;;59.20;27.97;;;;;;;-1.20;100.00;98798.91;4880267;29;20463;-91
2021/12/13 11:32:32;;;;;;;34.20;16.47;;;;;;;2.65;100.00;99449.00;4878941;29;20484;-91
2021/12/13 11:35:28;;;;;;;21.83;10.93;;;;;;;2.66;100.00;99454.13;4864912;29;20472;-91
2021/12/13 11:38:32;;;;;;;30.77;17.13;;;;;;;2.45;100.00;99451.63;4878345;29;20509;-91
2021/12/13 11:41:35;;;;;;;24.27;13.93;;;;;;;2.45;100.00;99439.13;4893219;29;20448;-91
2021/12/13 11:44:30;;;;;;;12.27;7.77;;;;;;;-0.86;100.00;98936.56;4878254;29;20500;-93
2021/12/13 11:47:32;;;;;;;16.00;9.60;;;;;;;2.24;100.00;99454.25;4878682;29;20449;-91
2021/12/13 11:50:30;;;;;;;19.03;9.00;;;;;;;0.92;100.00;99222.72;4880884;29;20461;-93
2021/12/13 11:53:32;;;;;;;21.83;11.07;;;;;;;2.38;100.00;99463.66;4876237;29;20420;-92
2021/12/13 11:56:39;;;;;;;38.73;19.70;;;;;;;2.32;100.00;99452.31;4890922;29;20431;-91
2021/12/13 11:59:43;;;;;;;44.97;21.87;;;;;;;2.38;100.00;99451.19;4896626;29;20444;-92
2021/12/13 12:02:24;;;;;;;15.60;8.53;;;;;;;-0.08;100.00;99067.91;4860468;29;20425;-93
2021/12/13 12:05:10;;;;;;;28.70;13.03;;;;;;;2.29;100.00;99452.09;4867040;29;20444;-92
2021/12/13 12:08:00;;;;;;;28.90;12.63;;;;;;;2.32;100.00;99448.22;4880787;29;20432;-92
2021/12/13 12:10:35;;;;;;;19.53;9.50;;;;;;;2.17;100.00;99452.00;4878564;29;20451;-92
2021/12/13 12:13:26;;;;;;;28.90;15.70;;;;;;;2.36;100.00;99455.16;4878209;29;20431;-90
2021/12/13 12:15:58;;;;;;;18.80;10.27;;;;;;;-1.53;100.00;98795.34;4876475;29;20408;-89
2021/12/13 12:18:26;;;;;;;23.73;10.60;;;;;;;0.95;100.00;99253.72;4861014;29;20420;-90
2021/12/13 12:21:30;;;;;;;23.07;10.63;;;;;;;2.30;100.00;99468.81;4877066;29;20416;-91
2021/12/13 12:24:17;;;;;;;18.30;7.97;;;;;;;0.96;100.00;99210.59;4878343;29;20415;-91
2021/12/13 12:26:54;;;;;;;37.97;19.37;;;;;;;2.47;100.00;99492.59;4864314;29;20496;-92
2021/12/13 12:35:39;;;;;;;32.43;16.40;;;;;;;-1.65;100.00;98795.25;5263086;23;20493;-90
2021/12/13 12:38:32;;;;;;;14.07;6.47;;;;;;;-1.11;100.00;98853.38;5058886;23;20495;-90
2021/12/13 12:41:11;;;;;;;19.87;10.87;;;;;;;2.50;100.00;99488.69;4936421;29;20435;-90
2021/12/13 12:43:42;;;;;;;18.43;8.87;;;;;;;0.26;100.00;99102.16;4915694;29;20416;-92
2021/12/13 12:46:13;;;;;;;21.63;10.37;;;;;;;-1.62;100.00;98772.31;4918422;29;20483;-91
2021/12/13 12:48:54;;;;;;;29.13;13.50;;;;;;;0.91;100.00;99194.44;4918327;29;20431;-92